createdAt,value
2022-09-12T00:01:17.709Z,6.38
2022-09-12T00:03:46.867Z,5.40
2022-09-12T00:06:23.442Z,6.10
2022-09-12T00:09:04.877Z,5.55
2022-09-12T00:11:38.902Z,8.55
2022-09-12T00:14:12.424Z,7.28
2022-09-12T00:16:42.069Z,6.22
2022-09-12T00:19:12.928Z,10.95
2022-09-12T00:21:42.214Z,11.38
2022-09-12T00:24:12.254Z,7.20
2022-09-12T00:26:42.207Z,6.70
2022-09-12T00:29:20.733Z,5.07
2022-09-12T00:31:48.984Z,10.38
2022-09-12T00:34:20.935Z,4.20
2022-09-12T00:36:49.677Z,4.85
2022-09-12T00:39:18.805Z,5.93
2022-09-12T00:41:52.970Z,6.15
2022-09-12T00:44:45.149Z,4.63
2022-09-12T00:47:24.041Z,7.75
2022-09-12T00:50:07.937Z,6.93
2022-09-12T00:53:01.498Z,4.57
2022-09-12T00:55:45.039Z,6.32
2022-09-12T00:58:21.575Z,5.65
2022-09-12T01:00:49.576Z,8.48
2022-09-12T01:03:19.769Z,8.02
2022-09-12T01:06:00.190Z,8.88
2022-09-12T01:08:29.139Z,9.48
2022-09-12T01:10:57.998Z,7.53
2022-09-12T01:13:26.110Z,5.35
2022-09-12T01:15:54.499Z,8.13
2022-09-12T01:18:24.683Z,5.30
2022-09-12T01:21:01.373Z,5.53
2022-09-12T01:23:47.276Z,11.10
2022-09-12T01:26:43.260Z,8.38
2022-09-12T01:29:48.030Z,6.90
2022-09-12T01:32:36.352Z,9.00
2022-09-12T01:35:23.280Z,8.63
2022-09-12T01:38:24.550Z,10.40
2022-09-12T01:41:10.127Z,13.82
2022-09-12T01:44:07.147Z,4.50
2022-09-12T01:47:08.814Z,9.35
2022-09-12T01:50:07.850Z,8.20
2022-09-12T01:52:59.578Z,7.65
2022-09-12T01:55:47.045Z,7.00
2022-09-12T01:58:27.096Z,11.85
2022-09-12T02:01:06.455Z,7.40
2022-09-12T02:03:43.705Z,6.93
2022-09-12T02:06:19.560Z,11.23
2022-09-12T02:08:55.014Z,6.60
2022-09-12T02:11:22.704Z,7.32
2022-09-12T02:13:56.000Z,8.25
2022-09-12T02:16:31.557Z,6.25
2022-09-12T02:19:13.480Z,5.82
2022-09-12T02:22:04.245Z,6.00
2022-09-12T02:24:35.328Z,6.82
2022-09-12T02:27:15.320Z,8.65
2022-09-12T02:29:45.254Z,5.82
2022-09-12T02:32:34.508Z,9.35
2022-09-12T02:35:18.690Z,5.05
2022-09-12T02:38:07.853Z,4.35
2022-09-12T02:40:36.286Z,3.58
2022-09-12T02:43:05.915Z,6.82
2022-09-12T02:45:37.147Z,7.35
2022-09-12T02:48:19.491Z,5.07
2022-09-12T02:50:47.145Z,8.00
2022-09-12T02:53:14.599Z,12.38
2022-09-12T02:55:43.579Z,18.85
2022-09-12T02:58:18.731Z,14.38
2022-09-12T03:01:01.656Z,21.52
2022-09-12T03:03:52.419Z,19.15
2022-09-12T03:06:32.003Z,26.92
2022-09-12T03:09:05.055Z,10.27
2022-09-12T03:11:44.335Z,12.98
2022-09-12T03:14:31.646Z,12.15
2022-09-12T03:17:27.057Z,9.40
2022-09-12T03:20:22.214Z,9.88
2022-09-12T03:22:54.624Z,11.38
2022-09-12T03:25:35.250Z,8.10
2022-09-12T03:28:10.594Z,8.60
2022-09-12T03:30:43.467Z,11.77
2022-09-12T03:33:19.973Z,7.47
2022-09-12T03:35:48.998Z,9.88
2022-09-12T03:38:16.704Z,5.60
2022-09-12T03:40:44.225Z,6.95
2022-09-12T03:43:11.551Z,11.63
2022-09-12T03:45:39.204Z,5.32
2022-09-12T03:48:07.355Z,6.03
2022-09-12T03:50:35.122Z,7.03
2022-09-12T03:53:03.549Z,12.75
2022-09-12T03:55:31.403Z,7.90
2022-09-12T03:57:58.649Z,6.97
2022-09-12T04:00:31.342Z,8.65
2022-09-12T04:05:26.398Z,6.80
2022-09-12T04:07:53.470Z,7.13
2022-09-12T04:10:20.862Z,6.82
2022-09-12T04:12:48.095Z,6.68
2022-09-12T04:15:15.531Z,7.85
2022-09-12T04:17:42.617Z,6.20
2022-09-12T04:20:10.059Z,7.10
2022-09-12T04:22:37.185Z,6.78
2022-09-12T04:25:04.452Z,6.25
2022-09-12T04:27:31.794Z,5.60
2022-09-12T04:30:00.687Z,7.60
2022-09-12T04:32:29.292Z,10.32
2022-09-12T04:34:56.687Z,4.70
2022-09-12T04:37:24.821Z,6.40
2022-09-12T04:39:54.442Z,6.10
2022-09-12T04:42:21.619Z,8.07
2022-09-12T04:44:49.288Z,7.53
2022-09-12T04:47:17.167Z,10.43
2022-09-12T04:49:44.248Z,6.53
2022-09-12T04:52:11.531Z,7.20
2022-09-12T04:54:38.886Z,11.18
2022-09-12T04:57:06.054Z,5.32
2022-09-12T04:59:36.257Z,10.05
2022-09-12T05:02:06.168Z,9.32
2022-09-12T05:04:36.519Z,7.30
2022-09-12T05:07:07.174Z,13.82
2022-09-12T05:09:35.540Z,14.48
2022-09-12T05:12:04.996Z,6.13
2022-09-12T05:14:33.824Z,4.72
2022-09-12T05:17:02.042Z,5.47
2022-09-12T05:19:30.693Z,14.32
2022-09-12T05:22:00.654Z,8.55
2022-09-12T05:24:28.136Z,12.10
2022-09-12T05:26:55.266Z,5.88
2022-09-12T05:29:22.417Z,10.82
2022-09-12T05:31:52.455Z,20.77
2022-09-12T05:34:20.577Z,9.55
2022-09-12T05:36:47.916Z,5.78
2022-09-12T05:39:15.352Z,7.75
2022-09-12T05:41:42.492Z,10.63
2022-09-12T05:44:14.330Z,13.02
2022-09-12T05:46:44.528Z,14.70
2022-09-12T05:49:13.703Z,11.43
2022-09-12T05:51:43.215Z,11.73
2022-09-12T05:54:12.727Z,9.30
2022-09-12T05:56:44.235Z,7.45
2022-09-12T05:59:17.442Z,19.52
2022-09-12T06:01:49.322Z,12.65
2022-09-12T06:04:17.871Z,7.63
2022-09-12T06:06:45.791Z,15.38
2022-09-12T06:09:17.345Z,11.85
2022-09-12T06:11:46.216Z,9.45
2022-09-12T06:14:15.814Z,11.70
2022-09-12T06:16:47.518Z,8.57
2022-09-12T06:19:19.913Z,6.47
2022-09-12T06:21:49.943Z,11.60
2022-09-12T06:24:18.536Z,15.70
2022-09-12T06:26:45.798Z,9.98
2022-09-12T06:29:14.513Z,8.95
2022-09-12T06:31:43.774Z,11.43
2022-09-12T06:34:17.306Z,11.50
2022-09-12T06:36:47.429Z,9.10
2022-09-12T06:39:19.913Z,9.88
2022-09-12T06:41:48.762Z,14.17
2022-09-12T06:44:21.275Z,11.02
2022-09-12T06:46:49.231Z,12.13
2022-09-12T06:49:19.533Z,8.02
2022-09-12T06:51:46.995Z,13.55
2022-09-12T06:54:17.437Z,14.38
2022-09-12T06:56:47.644Z,14.85
2022-09-12T06:59:14.986Z,14.88
2022-09-12T07:01:45.283Z,13.27
2022-09-12T07:04:16.878Z,13.00
2022-09-12T07:06:52.460Z,15.02
2022-09-12T07:09:19.747Z,9.48
2022-09-12T07:11:47.915Z,8.18
2022-09-12T07:14:15.981Z,8.38
2022-09-12T07:16:46.363Z,21.15
2022-09-12T07:19:13.616Z,14.25
2022-09-12T07:21:41.465Z,21.30
2022-09-12T07:24:11.824Z,22.13
2022-09-12T07:26:40.898Z,26.38
2022-09-12T07:29:35.389Z,14.93
2022-09-12T07:32:02.078Z,18.05
2022-09-12T07:34:29.176Z,14.88
2022-09-12T07:36:56.424Z,28.25
2022-09-12T07:39:23.518Z,17.15
2022-09-12T07:41:50.942Z,17.27
2022-09-12T07:44:18.032Z,22.05
2022-09-12T07:46:45.234Z,22.42
2022-09-12T07:49:12.555Z,21.10
2022-09-12T07:51:39.738Z,14.85
2022-09-12T07:54:10.623Z,12.70
2022-09-12T07:56:39.339Z,17.35
2022-09-12T07:59:07.712Z,14.23
2022-09-12T08:01:35.430Z,15.00
2022-09-12T08:04:03.681Z,21.23
2022-09-12T08:06:32.296Z,21.52
2022-09-12T08:09:00.341Z,21.10
2022-09-12T08:11:38.647Z,24.52
2022-09-12T08:14:05.931Z,16.38
2022-09-12T08:16:38.994Z,21.70
2022-09-12T08:21:34.273Z,24.48
2022-09-12T08:24:09.226Z,17.50
2022-09-12T08:26:36.441Z,15.68
2022-09-12T08:29:04.534Z,19.25
2022-09-12T08:31:37.969Z,19.05
2022-09-12T08:34:06.042Z,22.40
2022-09-12T08:36:34.041Z,15.93
2022-09-12T08:39:05.066Z,27.20
2022-09-12T08:41:35.441Z,14.75
2022-09-12T08:44:19.514Z,13.95
2022-09-12T08:47:14.344Z,10.07
2022-09-12T08:49:59.922Z,11.55
2022-09-12T08:52:45.182Z,13.00
2022-09-12T08:55:31.710Z,19.00
2022-09-12T08:58:20.499Z,15.20
2022-09-12T09:01:32.609Z,17.17
2022-09-12T09:04:32.818Z,14.85
2022-09-12T09:07:44.914Z,16.65
2022-09-12T09:10:15.244Z,8.98
2022-09-12T09:12:42.602Z,8.45
2022-09-12T09:15:37.700Z,5.78
2022-09-12T09:18:20.364Z,19.85
2022-09-12T09:20:47.776Z,12.07
2022-09-12T09:23:27.703Z,12.80
2022-09-12T09:26:00.603Z,13.07
2022-09-12T09:28:42.654Z,15.90
2022-09-12T09:31:19.235Z,13.73
2022-09-12T09:33:52.457Z,11.20
2022-09-12T09:36:52.533Z,6.03
2022-09-12T09:39:47.491Z,8.90
2022-09-12T09:42:20.893Z,8.25
2022-09-12T09:44:49.257Z,8.73
2022-09-12T09:47:18.535Z,10.40
2022-09-12T09:49:46.384Z,11.15
2022-09-12T09:52:17.448Z,10.13
2022-09-12T09:54:49.751Z,13.55
2022-09-12T09:57:35.089Z,15.80
2022-09-12T10:00:32.860Z,8.15
2022-09-12T10:03:14.749Z,8.13
2022-09-12T10:05:53.949Z,9.63
2022-09-12T10:08:26.567Z,8.32
2022-09-12T10:11:17.056Z,11.02
2022-09-12T10:13:58.174Z,19.50
2022-09-12T10:16:29.533Z,7.53
2022-09-12T10:19:00.654Z,8.18
2022-09-12T10:21:48.650Z,9.90
2022-09-12T10:24:31.135Z,14.05
2022-09-12T10:27:06.169Z,9.40
2022-09-12T10:29:48.643Z,13.55
2022-09-12T10:32:36.578Z,9.43
2022-09-12T10:35:12.617Z,11.48
2022-09-12T10:37:43.887Z,9.80
2022-09-12T10:40:24.613Z,6.47
2022-09-12T10:42:57.683Z,7.85
2022-09-12T10:47:54.466Z,6.00
2022-09-12T10:50:44.158Z,7.50
2022-09-12T10:53:21.464Z,8.38
2022-09-12T10:56:10.561Z,10.38
2022-09-12T10:59:24.584Z,6.25
2022-09-12T11:04:58.314Z,7.45
2022-09-12T11:10:21.473Z,9.05
2022-09-12T11:13:04.498Z,8.73
2022-09-12T11:15:53.514Z,4.80
2022-09-12T11:18:52.473Z,6.55
2022-09-12T11:21:45.641Z,8.35
2022-09-12T11:24:24.135Z,8.48
2022-09-12T11:26:51.501Z,6.93
2022-09-12T11:29:30.819Z,10.05
2022-09-12T11:32:11.565Z,10.13
2022-09-12T11:35:18.285Z,7.93
2022-09-12T11:38:18.392Z,6.13
2022-09-12T11:41:10.031Z,8.85
2022-09-12T11:43:54.878Z,3.83
2022-09-12T11:46:40.763Z,8.18
2022-09-12T11:49:13.791Z,8.63
2022-09-12T11:52:02.562Z,7.30
2022-09-12T11:54:58.112Z,8.63
2022-09-12T11:57:40.250Z,5.07
2022-09-12T12:00:24.879Z,5.78
2022-09-12T12:03:03.638Z,7.15
2022-09-12T12:05:52.541Z,4.85
2022-09-12T12:08:25.383Z,2.90
2022-09-12T12:10:59.877Z,4.00
2022-09-12T12:13:47.204Z,7.90
2022-09-12T12:16:34.928Z,5.18
2022-09-12T12:19:10.696Z,11.80
2022-09-12T12:21:55.061Z,3.05
2022-09-12T12:24:25.287Z,3.90
2022-09-12T12:27:01.195Z,5.28
2022-09-12T12:29:44.331Z,5.45
2022-09-12T12:32:11.731Z,5.18
2022-09-12T12:34:41.898Z,5.07
2022-09-12T12:37:23.146Z,3.88
2022-09-12T12:39:51.258Z,2.38
2022-09-12T12:42:36.596Z,10.82
2022-09-12T12:45:13.431Z,4.95
2022-09-12T12:47:49.276Z,3.38
2022-09-12T12:50:16.648Z,1.90
2022-09-12T12:52:46.844Z,4.97
2022-09-12T12:55:39.007Z,6.20
2022-09-12T12:58:22.323Z,11.50
2022-09-12T13:01:11.675Z,8.48
2022-09-12T13:03:46.866Z,8.18
2022-09-12T13:06:54.072Z,5.60
2022-09-12T13:09:30.111Z,3.50
2022-09-12T13:12:10.863Z,10.40
2022-09-12T13:14:47.368Z,5.32
2022-09-12T13:17:27.069Z,6.10
2022-09-12T13:20:26.784Z,2.85
2022-09-12T13:22:53.434Z,6.28
2022-09-12T13:25:35.674Z,11.68
2022-09-12T13:28:15.287Z,6.73
2022-09-12T13:30:56.238Z,4.90
2022-09-12T13:33:49.817Z,6.30
2022-09-12T13:36:48.493Z,8.05
2022-09-12T13:39:36.887Z,5.55
2022-09-12T13:42:22.850Z,11.73
2022-09-12T13:45:07.990Z,3.58
2022-09-12T13:47:38.875Z,7.72
2022-09-12T13:50:09.308Z,5.13
2022-09-12T13:52:38.823Z,3.33
2022-09-12T13:55:15.582Z,5.72
2022-09-12T13:57:45.166Z,4.65
2022-09-12T14:00:20.589Z,3.45
2022-09-12T14:03:08.844Z,8.60
2022-09-12T14:05:38.545Z,6.53
2022-09-12T14:08:08.884Z,11.32
2022-09-12T14:10:40.769Z,4.40
2022-09-12T14:13:26.091Z,1.65
2022-09-12T14:15:56.327Z,5.55
2022-09-12T14:18:38.320Z,4.55
2022-09-12T14:21:38.049Z,5.60
2022-09-12T14:24:10.606Z,4.28
2022-09-12T14:26:40.711Z,3.03
2022-09-12T14:29:17.205Z,4.93
2022-09-12T14:31:45.090Z,8.13
2022-09-12T14:34:19.847Z,6.25
2022-09-12T14:36:50.489Z,5.10
2022-09-12T14:39:17.879Z,3.70
2022-09-12T14:41:46.797Z,9.90
2022-09-12T14:44:26.624Z,4.45
2022-09-12T14:46:54.275Z,6.07
2022-09-12T14:49:34.938Z,2.28
2022-09-12T14:52:08.906Z,6.25
2022-09-12T14:54:38.367Z,4.68
2022-09-12T14:57:42.458Z,7.78
2022-09-12T15:00:21.223Z,4.93
2022-09-12T15:02:53.744Z,4.75
2022-09-12T15:05:24.953Z,11.55
2022-09-12T15:08:00.339Z,3.75
2022-09-12T15:10:38.021Z,9.80
2022-09-12T15:13:16.976Z,16.40
2022-09-12T15:15:47.100Z,9.18
2022-09-12T15:18:15.288Z,4.20
2022-09-12T15:20:48.006Z,1.92
2022-09-12T15:23:26.330Z,2.45
2022-09-12T15:25:53.979Z,6.30
2022-09-12T15:28:24.411Z,3.88
2022-09-12T15:30:55.472Z,5.22
2022-09-12T15:33:25.574Z,6.72
2022-09-12T15:35:54.311Z,4.25
2022-09-12T15:38:26.379Z,8.48
2022-09-12T15:40:54.861Z,4.50
2022-09-12T15:43:23.117Z,4.35
2022-09-12T15:45:51.974Z,6.20
2022-09-12T15:48:21.236Z,4.15
2022-09-12T15:50:48.829Z,7.88
2022-09-12T15:53:18.402Z,4.20
2022-09-12T15:55:48.890Z,5.53
2022-09-12T15:58:18.597Z,5.53
2022-09-12T16:00:46.237Z,3.47
2022-09-12T16:03:25.275Z,5.95
2022-09-12T16:06:01.846Z,4.78
2022-09-12T16:08:31.696Z,4.90
2022-09-12T16:11:20.804Z,5.95
2022-09-12T16:13:52.955Z,8.02
2022-09-12T16:16:20.689Z,3.60
2022-09-12T16:18:51.476Z,5.30
2022-09-12T16:21:21.069Z,6.75
2022-09-12T16:23:51.121Z,3.92
2022-09-12T16:26:26.074Z,4.60
2022-09-12T16:29:00.250Z,3.42
2022-09-12T16:31:29.196Z,4.78
2022-09-12T16:33:56.602Z,10.45
2022-09-12T16:36:24.064Z,3.60
2022-09-12T16:38:53.663Z,6.95
2022-09-12T16:41:25.524Z,17.85
2022-09-12T16:43:53.388Z,2.95
2022-09-12T16:46:23.743Z,4.18
2022-09-12T16:48:53.860Z,4.60
2022-09-12T16:51:24.134Z,2.97
2022-09-12T16:54:00.743Z,7.90
2022-09-12T16:56:29.031Z,11.85
2022-09-12T16:58:56.594Z,4.15
2022-09-12T17:01:26.620Z,2.40
2022-09-12T17:04:04.886Z,8.52
2022-09-12T17:06:33.495Z,4.13
2022-09-12T17:09:03.018Z,3.67
2022-09-12T17:11:33.657Z,2.38
2022-09-12T17:14:06.078Z,6.97
2022-09-12T17:16:36.899Z,4.55
2022-09-12T17:19:05.418Z,5.07
2022-09-12T17:21:32.981Z,11.10
2022-09-12T17:24:00.642Z,7.85
2022-09-12T17:26:27.984Z,4.53
2022-09-12T17:28:55.236Z,6.50
2022-09-12T17:31:22.373Z,4.03
2022-09-12T17:33:49.774Z,5.78
2022-09-12T17:36:21.902Z,5.60
2022-09-12T17:38:50.116Z,2.20
2022-09-12T17:41:20.123Z,5.88
2022-09-12T17:43:51.174Z,2.22
2022-09-12T17:46:20.173Z,4.03
2022-09-12T17:48:59.472Z,7.10
2022-09-12T17:51:30.946Z,4.35
2022-09-12T17:54:06.262Z,4.47
2022-09-12T17:56:37.574Z,4.13
2022-09-12T17:59:06.069Z,7.65
2022-09-12T18:02:18.254Z,5.55
2022-09-12T18:05:01.557Z,5.63
2022-09-12T18:07:38.958Z,7.43
2022-09-12T18:10:37.113Z,6.00
2022-09-12T18:13:08.496Z,5.18
2022-09-12T18:15:36.559Z,7.47
2022-09-12T18:18:04.555Z,6.90
2022-09-12T18:20:35.022Z,4.97
2022-09-12T18:23:04.630Z,5.28
2022-09-12T18:25:34.222Z,5.05
2022-09-12T18:28:02.627Z,9.27
2022-09-12T18:30:31.422Z,5.03
2022-09-12T18:32:58.682Z,6.80
2022-09-12T18:35:25.837Z,3.63
2022-09-12T18:37:56.122Z,4.53
2022-09-12T18:40:23.474Z,11.15
2022-09-12T18:42:51.767Z,12.13
2022-09-12T18:45:19.078Z,11.13
2022-09-12T18:47:46.469Z,7.28
2022-09-12T18:50:13.736Z,5.63
2022-09-12T18:52:41.089Z,9.10
2022-09-12T18:55:08.600Z,9.30
2022-09-12T18:57:39.218Z,8.80
2022-09-12T19:00:12.758Z,4.03
2022-09-12T19:05:13.161Z,4.90
2022-09-12T19:07:40.427Z,4.32
2022-09-12T19:10:10.311Z,3.45
2022-09-12T19:12:40.608Z,7.88
2022-09-12T19:15:11.569Z,6.55
2022-09-12T19:17:42.273Z,4.13
2022-09-12T19:20:16.214Z,7.18
2022-09-12T19:22:47.375Z,7.10
2022-09-12T19:25:15.000Z,3.80
2022-09-12T19:27:45.598Z,6.53
2022-09-12T19:30:13.223Z,8.40
2022-09-12T19:32:43.156Z,5.60
2022-09-12T19:37:41.793Z,9.45
2022-09-12T19:40:12.023Z,7.63
2022-09-12T19:42:41.234Z,9.38
2022-09-12T19:45:08.835Z,8.02
2022-09-12T19:47:36.062Z,7.88
2022-09-12T19:50:29.152Z,8.55
2022-09-12T19:55:26.442Z,5.20
2022-09-12T19:57:56.426Z,8.65
2022-09-12T20:00:24.361Z,4.88
2022-09-12T20:02:53.922Z,8.27
2022-09-12T20:05:22.555Z,8.48
2022-09-12T20:07:51.918Z,8.52
2022-09-12T20:13:18.289Z,6.55
2022-09-12T20:15:46.107Z,4.80
2022-09-12T20:18:21.281Z,7.32
2022-09-12T20:20:50.962Z,8.50
2022-09-12T20:23:18.642Z,8.98
2022-09-12T20:25:51.906Z,12.32
2022-09-12T20:30:50.219Z,4.47
2022-09-12T20:33:17.844Z,10.02
2022-09-12T20:35:47.534Z,6.28
2022-09-12T20:38:14.949Z,9.00
2022-09-12T20:40:49.524Z,8.55
2022-09-12T20:43:19.643Z,8.93
2022-09-12T20:45:47.331Z,6.63
2022-09-12T20:48:21.019Z,7.63
2022-09-12T20:50:52.000Z,10.93
2022-09-12T20:53:22.483Z,5.28
2022-09-12T20:55:54.014Z,5.70
2022-09-12T20:58:25.004Z,9.57
2022-09-12T21:00:52.724Z,6.60
2022-09-12T21:03:23.278Z,5.63
2022-09-12T21:05:53.984Z,8.43
2022-09-12T21:08:21.386Z,6.20
2022-09-12T21:10:51.286Z,6.82
2022-09-12T21:13:18.726Z,10.30
2022-09-12T21:15:48.922Z,10.65
2022-09-12T21:18:16.632Z,8.35
2022-09-12T21:20:44.598Z,12.30
2022-09-12T21:23:12.146Z,16.88
2022-09-12T21:25:40.276Z,11.80
2022-09-12T21:28:15.588Z,15.43
2022-09-12T21:30:44.862Z,10.65
2022-09-12T21:33:15.944Z,11.25
2022-09-12T21:35:44.134Z,14.27
2022-09-12T21:38:12.059Z,12.93
2022-09-12T21:40:39.736Z,10.73
2022-09-12T21:43:11.880Z,12.05
2022-09-12T21:45:41.169Z,11.13
2022-09-12T21:48:08.430Z,12.13
2022-09-12T21:50:38.155Z,12.43
2022-09-12T21:53:05.909Z,8.60
2022-09-12T21:55:33.317Z,12.27
2022-09-12T21:58:00.653Z,13.85
2022-09-12T22:00:31.182Z,11.98
2022-09-12T22:02:59.318Z,10.50
2022-09-12T22:05:30.288Z,9.07
2022-09-12T22:08:01.014Z,10.55
2022-09-12T22:10:33.421Z,12.00
2022-09-12T22:13:01.206Z,10.20
2022-09-12T22:15:46.669Z,7.05
2022-09-12T22:18:14.600Z,6.30
2022-09-12T22:20:41.812Z,6.75
2022-09-12T22:23:30.945Z,4.63
2022-09-12T22:26:00.734Z,7.47
2022-09-12T22:28:30.538Z,7.13
2022-09-12T22:30:58.776Z,7.03
2022-09-12T22:33:30.622Z,7.03
2022-09-12T22:35:58.146Z,7.13
2022-09-12T22:38:26.291Z,8.48
2022-09-12T22:40:53.565Z,4.65
2022-09-12T22:43:20.661Z,11.73
2022-09-12T22:45:48.029Z,8.43
2022-09-12T22:48:17.452Z,8.48
2022-09-12T22:50:45.736Z,6.43
2022-09-12T22:53:12.842Z,8.15
2022-09-12T22:55:40.136Z,6.75
2022-09-12T22:58:07.401Z,7.32
2022-09-12T23:00:35.299Z,5.95
2022-09-12T23:03:02.855Z,5.18
2022-09-12T23:05:30.453Z,11.65
2022-09-12T23:07:57.534Z,4.05
2022-09-12T23:10:26.273Z,6.40
2022-09-12T23:12:55.220Z,9.50
2022-09-12T23:15:22.341Z,7.97
2022-09-12T23:17:49.574Z,7.40
2022-09-12T23:20:16.718Z,6.78
2022-09-12T23:22:43.718Z,9.18
2022-09-12T23:25:10.889Z,8.25
2022-09-12T23:27:40.279Z,9.35
2022-09-12T23:30:08.521Z,6.03
2022-09-12T23:32:38.837Z,12.90
2022-09-12T23:35:07.076Z,11.32
2022-09-12T23:37:34.199Z,10.65
2022-09-12T23:40:01.544Z,9.90
2022-09-12T23:42:28.663Z,8.52
2022-09-12T23:44:55.919Z,7.60
2022-09-12T23:47:22.972Z,9.30
2022-09-12T23:49:53.789Z,5.45
2022-09-12T23:52:21.001Z,6.93
2022-09-12T23:54:48.216Z,6.85
2022-09-12T23:57:16.616Z,7.40
